sensor_id;sensor_type;location;lat;lon;timestamp;P1;durP1;ratioP1;P2;durP2;ratioP2
44558;SDS011;30270;40.238;18.256;2022-09-01T00:02:15;10.60;;;6.70;;
44558;SDS011;30270;40.238;18.256;2022-09-01T00:04:43;10.80;;;6.30;;
44558;SDS011;30270;40.238;18.256;2022-09-01T00:07:11;11.20;;;6.10;;
44558;SDS011;30270;40.238;18.256;2022-09-01T00:09:42;9.20;;;5.63;;
44558;SDS011;30270;40.238;18.256;2022-09-01T00:12:11;9.57;;;6.63;;
44558;SDS011;30270;40.238;18.256;2022-09-01T00:14:40;10.98;;;6.28;;
44558;SDS011;30270;40.238;18.256;2022-09-01T00:17:09;9.95;;;6.70;;
44558;SDS011;30270;40.238;18.256;2022-09-01T00:19:38;12.13;;;7.05;;
44558;SDS011;30270;40.238;18.256;2022-09-01T00:22:06;8.90;;;6.80;;
44558;SDS011;30270;40.238;18.256;2022-09-01T00:24:34;12.18;;;6.15;;
44558;SDS011;30270;40.238;18.256;2022-09-01T00:27:02;13.70;;;6.75;;
44558;SDS011;30270;40.238;18.256;2022-09-01T00:29:29;7.78;;;5.72;;
44558;SDS011;30270;40.238;18.256;2022-09-01T00:31:57;10.35;;;6.97;;
44558;SDS011;30270;40.238;18.256;2022-09-01T00:34:25;9.45;;;5.50;;
44558;SDS011;30270;40.238;18.256;2022-09-01T00:36:52;9.65;;;4.85;;
44558;SDS011;30270;40.238;18.256;2022-09-01T00:39:20;8.80;;;6.80;;
44558;SDS011;30270;40.238;18.256;2022-09-01T00:41:47;8.68;;;5.95;;
44558;SDS011;30270;40.238;18.256;2022-09-01T00:44:18;8.93;;;6.30;;
44558;SDS011;30270;40.238;18.256;2022-09-01T00:46:54;8.98;;;5.72;;
44558;SDS011;30270;40.238;18.256;2022-09-01T00:52:00;8.43;;;5.30;;
44558;SDS011;30270;40.238;18.256;2022-09-01T00:54:40;9.25;;;5.95;;
44558;SDS011;30270;40.238;18.256;2022-09-01T00:57:13;7.88;;;4.85;;
44558;SDS011;30270;40.238;18.256;2022-09-01T00:59:44;7.80;;;5.38;;
44558;SDS011;30270;40.238;18.256;2022-09-01T01:02:19;9.10;;;5.20;;
44558;SDS011;30270;40.238;18.256;2022-09-01T01:04:47;7.90;;;5.15;;
44558;SDS011;30270;40.238;18.256;2022-09-01T01:07:14;7.60;;;5.68;;
44558;SDS011;30270;40.238;18.256;2022-09-01T01:09:43;8.63;;;5.85;;
44558;SDS011;30270;40.238;18.256;2022-09-01T01:12:12;7.28;;;5.20;;
44558;SDS011;30270;40.238;18.256;2022-09-01T01:14:47;9.13;;;5.90;;
44558;SDS011;30270;40.238;18.256;2022-09-01T01:17:18;7.30;;;5.30;;
44558;SDS011;30270;40.238;18.256;2022-09-01T01:19:53;7.55;;;5.25;;
44558;SDS011;30270;40.238;18.256;2022-09-01T01:25:45;9.82;;;6.88;;
44558;SDS011;30270;40.238;18.256;2022-09-01T01:28:21;11.70;;;6.15;;
44558;SDS011;30270;40.238;18.256;2022-09-01T01:36:09;9.73;;;6.22;;
44558;SDS011;30270;40.238;18.256;2022-09-01T01:38:39;11.35;;;5.97;;
44558;SDS011;30270;40.238;18.256;2022-09-01T01:41:11;8.70;;;5.85;;
44558;SDS011;30270;40.238;18.256;2022-09-01T01:43:40;8.05;;;6.18;;
44558;SDS011;30270;40.238;18.256;2022-09-01T01:46:09;9.50;;;6.10;;
44558;SDS011;30270;40.238;18.256;2022-09-01T01:48:39;8.77;;;4.68;;
44558;SDS011;30270;40.238;18.256;2022-09-01T01:51:09;10.18;;;5.97;;
44558;SDS011;30270;40.238;18.256;2022-09-01T01:53:39;6.65;;;5.38;;
44558;SDS011;30270;40.238;18.256;2022-09-01T01:56:06;7.28;;;5.10;;
44558;SDS011;30270;40.238;18.256;2022-09-01T01:58:35;6.93;;;5.05;;
44558;SDS011;30270;40.238;18.256;2022-09-01T02:01:10;8.93;;;5.07;;
44558;SDS011;30270;40.238;18.256;2022-09-01T02:03:39;6.68;;;4.80;;
44558;SDS011;30270;40.238;18.256;2022-09-01T02:06:07;8.80;;;4.72;;
44558;SDS011;30270;40.238;18.256;2022-09-01T02:08:39;9.95;;;4.25;;
44558;SDS011;30270;40.238;18.256;2022-09-01T02:11:09;9.18;;;5.25;;
44558;SDS011;30270;40.238;18.256;2022-09-01T02:13:38;7.38;;;4.63;;
44558;SDS011;30270;40.238;18.256;2022-09-01T02:16:07;6.07;;;4.60;;
44558;SDS011;30270;40.238;18.256;2022-09-01T02:18:41;6.00;;;4.10;;
44558;SDS011;30270;40.238;18.256;2022-09-01T02:21:14;4.85;;;3.90;;
44558;SDS011;30270;40.238;18.256;2022-09-01T02:23:47;8.18;;;4.88;;
44558;SDS011;30270;40.238;18.256;2022-09-01T02:26:35;6.78;;;4.72;;
44558;SDS011;30270;40.238;18.256;2022-09-01T02:29:10;6.45;;;4.30;;
44558;SDS011;30270;40.238;18.256;2022-09-01T02:31:46;6.10;;;4.70;;
44558;SDS011;30270;40.238;18.256;2022-09-01T02:34:15;6.20;;;4.57;;
44558;SDS011;30270;40.238;18.256;2022-09-01T02:36:49;9.18;;;4.32;;
44558;SDS011;30270;40.238;18.256;2022-09-01T02:39:22;5.15;;;3.92;;
44558;SDS011;30270;40.238;18.256;2022-09-01T02:41:53;5.38;;;4.25;;
44558;SDS011;30270;40.238;18.256;2022-09-01T02:44:24;6.07;;;4.05;;
44558;SDS011;30270;40.238;18.256;2022-09-01T02:46:54;6.70;;;3.83;;
44558;SDS011;30270;40.238;18.256;2022-09-01T02:49:23;6.78;;;4.70;;
44558;SDS011;30270;40.238;18.256;2022-09-01T02:51:55;6.28;;;4.03;;
44558;SDS011;30270;40.238;18.256;2022-09-01T02:54:28;5.38;;;3.75;;
44558;SDS011;30270;40.238;18.256;2022-09-01T02:56:58;8.52;;;4.47;;
44558;SDS011;30270;40.238;18.256;2022-09-01T02:59:27;6.10;;;4.50;;
44558;SDS011;30270;40.238;18.256;2022-09-01T03:01:58;6.50;;;4.38;;
44558;SDS011;30270;40.238;18.256;2022-09-01T03:04:26;5.65;;;4.45;;
44558;SDS011;30270;40.238;18.256;2022-09-01T03:06:54;7.55;;;4.72;;
44558;SDS011;30270;40.238;18.256;2022-09-01T03:09:24;8.43;;;4.60;;
44558;SDS011;30270;40.238;18.256;2022-09-01T03:11:53;8.40;;;4.82;;
44558;SDS011;30270;40.238;18.256;2022-09-01T03:14:22;6.90;;;4.38;;
44558;SDS011;30270;40.238;18.256;2022-09-01T03:16:52;6.63;;;4.78;;
44558;SDS011;30270;40.238;18.256;2022-09-01T03:19:20;5.53;;;4.13;;
44558;SDS011;30270;40.238;18.256;2022-09-01T03:21:48;9.68;;;5.03;;
44558;SDS011;30270;40.238;18.256;2022-09-01T03:24:20;6.75;;;4.60;;
44558;SDS011;30270;40.238;18.256;2022-09-01T03:26:49;6.97;;;4.35;;
44558;SDS011;30270;40.238;18.256;2022-09-01T03:29:18;7.53;;;5.85;;
44558;SDS011;30270;40.238;18.256;2022-09-01T03:31:46;10.93;;;7.50;;
44558;SDS011;30270;40.238;18.256;2022-09-01T03:34:14;20.35;;;12.05;;
44558;SDS011;30270;40.238;18.256;2022-09-01T03:36:47;15.68;;;10.65;;
44558;SDS011;30270;40.238;18.256;2022-09-01T03:39:27;18.17;;;10.85;;
44558;SDS011;30270;40.238;18.256;2022-09-01T03:41:55;17.77;;;10.98;;
44558;SDS011;30270;40.238;18.256;2022-09-01T03:44:25;17.20;;;10.07;;
44558;SDS011;30270;40.238;18.256;2022-09-01T03:46:53;10.63;;;7.28;;
44558;SDS011;30270;40.238;18.256;2022-09-01T03:49:21;9.40;;;5.88;;
44558;SDS011;30270;40.238;18.256;2022-09-01T03:51:55;7.82;;;5.30;;
44558;SDS011;30270;40.238;18.256;2022-09-01T03:54:24;7.95;;;4.07;;
44558;SDS011;30270;40.238;18.256;2022-09-01T03:56:56;5.55;;;3.83;;
44558;SDS011;30270;40.238;18.256;2022-09-01T03:59:25;5.47;;;3.97;;
44558;SDS011;30270;40.238;18.256;2022-09-01T04:01:55;5.82;;;4.30;;
44558;SDS011;30270;40.238;18.256;2022-09-01T04:04:23;5.20;;;3.63;;
44558;SDS011;30270;40.238;18.256;2022-09-01T04:06:52;5.53;;;4.50;;
44558;SDS011;30270;40.238;18.256;2022-09-01T04:09:20;7.90;;;4.90;;
44558;SDS011;30270;40.238;18.256;2022-09-01T04:11:48;7.78;;;4.70;;
44558;SDS011;30270;40.238;18.256;2022-09-01T04:14:16;7.80;;;5.03;;
44558;SDS011;30270;40.238;18.256;2022-09-01T04:16:47;6.88;;;4.30;;
44558;SDS011;30270;40.238;18.256;2022-09-01T04:19:34;7.82;;;4.70;;
44558;SDS011;30270;40.238;18.256;2022-09-01T04:22:06;6.20;;;4.35;;
44558;SDS011;30270;40.238;18.256;2022-09-01T04:24:42;8.18;;;5.47;;
44558;SDS011;30270;40.238;18.256;2022-09-01T04:27:12;8.10;;;4.38;;
44558;SDS011;30270;40.238;18.256;2022-09-01T04:29:41;6.78;;;4.15;;
44558;SDS011;30270;40.238;18.256;2022-09-01T04:32:11;8.88;;;5.43;;
44558;SDS011;30270;40.238;18.256;2022-09-01T04:34:43;6.63;;;4.53;;
44558;SDS011;30270;40.238;18.256;2022-09-01T04:37:15;6.47;;;4.00;;
44558;SDS011;30270;40.238;18.256;2022-09-01T04:39:47;7.00;;;4.35;;
44558;SDS011;30270;40.238;18.256;2022-09-01T04:42:21;6.45;;;4.18;;
44558;SDS011;30270;40.238;18.256;2022-09-01T04:44:51;5.65;;;4.13;;
44558;SDS011;30270;40.238;18.256;2022-09-01T04:47:21;7.15;;;4.28;;
44558;SDS011;30270;40.238;18.256;2022-09-01T04:49:57;4.83;;;3.40;;
44558;SDS011;30270;40.238;18.256;2022-09-01T04:52:26;6.00;;;4.00;;
44558;SDS011;30270;40.238;18.256;2022-09-01T04:54:55;6.85;;;4.28;;
44558;SDS011;30270;40.238;18.256;2022-09-01T04:57:24;5.53;;;3.05;;
44558;SDS011;30270;40.238;18.256;2022-09-01T04:59:55;5.45;;;3.72;;
44558;SDS011;30270;40.238;18.256;2022-09-01T05:02:24;4.55;;;3.63;;
44558;SDS011;30270;40.238;18.256;2022-09-01T05:04:54;5.93;;;3.72;;
44558;SDS011;30270;40.238;18.256;2022-09-01T05:07:24;4.78;;;3.45;;
44558;SDS011;30270;40.238;18.256;2022-09-01T05:09:53;4.82;;;3.22;;
44558;SDS011;30270;40.238;18.256;2022-09-01T05:12:55;6.72;;;3.88;;
44558;SDS011;30270;40.238;18.256;2022-09-01T05:15:23;5.43;;;3.42;;
44558;SDS011;30270;40.238;18.256;2022-09-01T05:17:50;5.47;;;3.88;;
44558;SDS011;30270;40.238;18.256;2022-09-01T05:20:21;7.22;;;3.65;;
44558;SDS011;30270;40.238;18.256;2022-09-01T05:22:50;5.07;;;3.17;;
44558;SDS011;30270;40.238;18.256;2022-09-01T05:25:22;5.72;;;3.30;;
44558;SDS011;30270;40.238;18.256;2022-09-01T05:27:50;5.38;;;4.03;;
44558;SDS011;30270;40.238;18.256;2022-09-01T05:30:20;8.60;;;4.10;;
44558;SDS011;30270;40.238;18.256;2022-09-01T05:32:48;6.10;;;4.00;;
44558;SDS011;30270;40.238;18.256;2022-09-01T05:35:16;6.03;;;3.67;;
44558;SDS011;30270;40.238;18.256;2022-09-01T05:37:44;5.03;;;3.78;;
44558;SDS011;30270;40.238;18.256;2022-09-01T05:40:13;5.00;;;3.47;;
44558;SDS011;30270;40.238;18.256;2022-09-01T05:42:43;6.00;;;4.03;;
44558;SDS011;30270;40.238;18.256;2022-09-01T05:45:12;6.15;;;3.60;;
44558;SDS011;30270;40.238;18.256;2022-09-01T05:47:41;5.47;;;3.35;;
44558;SDS011;30270;40.238;18.256;2022-09-01T05:50:09;5.32;;;3.45;;
44558;SDS011;30270;40.238;18.256;2022-09-01T05:52:39;5.35;;;3.78;;
44558;SDS011;30270;40.238;18.256;2022-09-01T05:55:10;5.30;;;3.75;;
44558;SDS011;30270;40.238;18.256;2022-09-01T05:57:41;5.25;;;3.63;;
44558;SDS011;30270;40.238;18.256;2022-09-01T06:00:10;8.40;;;5.30;;
44558;SDS011;30270;40.238;18.256;2022-09-01T06:02:39;6.30;;;4.13;;
44558;SDS011;30270;40.238;18.256;2022-09-01T06:05:13;6.13;;;3.75;;
44558;SDS011;30270;40.238;18.256;2022-09-01T06:07:43;7.85;;;3.97;;
44558;SDS011;30270;40.238;18.256;2022-09-01T06:10:11;5.70;;;4.00;;
44558;SDS011;30270;40.238;18.256;2022-09-01T06:12:40;6.78;;;4.40;;
44558;SDS011;30270;40.238;18.256;2022-09-01T06:15:09;5.35;;;3.60;;
44558;SDS011;30270;40.238;18.256;2022-09-01T06:20:13;5.30;;;3.83;;
44558;SDS011;30270;40.238;18.256;2022-09-01T06:22:44;6.53;;;4.57;;
44558;SDS011;30270;40.238;18.256;2022-09-01T06:25:12;5.75;;;4.43;;
44558;SDS011;30270;40.238;18.256;2022-09-01T06:27:45;8.23;;;3.83;;
44558;SDS011;30270;40.238;18.256;2022-09-01T06:30:15;7.00;;;4.07;;
44558;SDS011;30270;40.238;18.256;2022-09-01T06:32:53;6.53;;;4.20;;
44558;SDS011;30270;40.238;18.256;2022-09-01T06:35:22;7.65;;;3.75;;
44558;SDS011;30270;40.238;18.256;2022-09-01T06:37:56;6.90;;;3.72;;
44558;SDS011;30270;40.238;18.256;2022-09-01T06:40:58;6.40;;;3.60;;
44558;SDS011;30270;40.238;18.256;2022-09-01T06:43:27;7.65;;;4.30;;
44558;SDS011;30270;40.238;18.256;2022-09-01T06:45:59;4.18;;;3.17;;
44558;SDS011;30270;40.238;18.256;2022-09-01T06:48:28;7.78;;;4.50;;
44558;SDS011;30270;40.238;18.256;2022-09-01T06:51:02;4.53;;;3.30;;
44558;SDS011;30270;40.238;18.256;2022-09-01T06:53:50;4.97;;;2.90;;
44558;SDS011;30270;40.238;18.256;2022-09-01T06:58:57;6.20;;;3.55;;
44558;SDS011;30270;40.238;18.256;2022-09-01T07:01:26;5.63;;;3.60;;
44558;SDS011;30270;40.238;18.256;2022-09-01T07:03:55;4.18;;;2.97;;
44558;SDS011;30270;40.238;18.256;2022-09-01T07:06:35;6.18;;;3.30;;
44558;SDS011;30270;40.238;18.256;2022-09-01T07:09:47;5.53;;;3.15;;
44558;SDS011;30270;40.238;18.256;2022-09-01T07:12:34;5.68;;;2.92;;
44558;SDS011;30270;40.238;18.256;2022-09-01T07:15:02;4.05;;;2.97;;
44558;SDS011;30270;40.238;18.256;2022-09-01T07:17:51;4.50;;;3.22;;
44558;SDS011;30270;40.238;18.256;2022-09-01T07:20:24;4.25;;;3.47;;
44558;SDS011;30270;40.238;18.256;2022-09-01T07:22:56;5.05;;;2.90;;
44558;SDS011;30270;40.238;18.256;2022-09-01T07:25:42;4.18;;;2.90;;
44558;SDS011;30270;40.238;18.256;2022-09-01T07:28:37;4.18;;;3.20;;
44558;SDS011;30270;40.238;18.256;2022-09-01T07:31:05;5.32;;;2.88;;
44558;SDS011;30270;40.238;18.256;2022-09-01T07:33:57;5.93;;;2.80;;
44558;SDS011;30270;40.238;18.256;2022-09-01T07:36:47;5.15;;;3.58;;
44558;SDS011;30270;40.238;18.256;2022-09-01T07:39:37;4.32;;;2.60;;
44558;SDS011;30270;40.238;18.256;2022-09-01T07:42:33;5.75;;;3.30;;
44558;SDS011;30270;40.238;18.256;2022-09-01T07:45:43;5.35;;;3.13;;
44558;SDS011;30270;40.238;18.256;2022-09-01T07:48:16;4.88;;;3.63;;
44558;SDS011;30270;40.238;18.256;2022-09-01T07:51:10;3.90;;;2.60;;
44558;SDS011;30270;40.238;18.256;2022-09-01T07:53:59;5.25;;;3.53;;
44558;SDS011;30270;40.238;18.256;2022-09-01T07:56:28;5.80;;;3.60;;
44558;SDS011;30270;40.238;18.256;2022-09-01T07:58:57;5.32;;;3.08;;
44558;SDS011;30270;40.238;18.256;2022-09-01T08:01:26;4.25;;;3.15;;
44558;SDS011;30270;40.238;18.256;2022-09-01T08:03:56;7.13;;;3.25;;
44558;SDS011;30270;40.238;18.256;2022-09-01T08:06:26;4.22;;;2.70;;
44558;SDS011;30270;40.238;18.256;2022-09-01T08:09:04;4.47;;;3.20;;
44558;SDS011;30270;40.238;18.256;2022-09-01T08:11:33;5.78;;;3.00;;
44558;SDS011;30270;40.238;18.256;2022-09-01T08:14:17;3.83;;;2.78;;
44558;SDS011;30270;40.238;18.256;2022-09-01T08:16:44;3.78;;;2.58;;
44558;SDS011;30270;40.238;18.256;2022-09-01T08:19:20;3.42;;;2.60;;
44558;SDS011;30270;40.238;18.256;2022-09-01T08:22:03;6.18;;;2.92;;
44558;SDS011;30270;40.238;18.256;2022-09-01T08:24:39;6.60;;;4.20;;
44558;SDS011;30270;40.238;18.256;2022-09-01T08:27:08;3.50;;;2.47;;
44558;SDS011;30270;40.238;18.256;2022-09-01T08:29:36;5.70;;;2.97;;
44558;SDS011;30270;40.238;18.256;2022-09-01T08:32:03;5.80;;;2.75;;
44558;SDS011;30270;40.238;18.256;2022-09-01T08:34:31;3.45;;;2.75;;
44558;SDS011;30270;40.238;18.256;2022-09-01T08:37:00;4.38;;;3.20;;
44558;SDS011;30270;40.238;18.256;2022-09-01T08:39:28;7.63;;;3.13;;
44558;SDS011;30270;40.238;18.256;2022-09-01T08:42:17;6.18;;;3.15;;
44558;SDS011;30270;40.238;18.256;2022-09-01T08:47:38;6.05;;;3.53;;
44558;SDS011;30270;40.238;18.256;2022-09-01T08:50:16;5.95;;;3.50;;
44558;SDS011;30270;40.238;18.256;2022-09-01T08:53:08;5.75;;;3.13;;
44558;SDS011;30270;40.238;18.256;2022-09-01T08:55:43;5.60;;;2.90;;
44558;SDS011;30270;40.238;18.256;2022-09-01T08:58:14;7.20;;;3.25;;
44558;SDS011;30270;40.238;18.256;2022-09-01T09:01:03;6.90;;;3.70;;
44558;SDS011;30270;40.238;18.256;2022-09-01T09:04:01;6.10;;;3.08;;
44558;SDS011;30270;40.238;18.256;2022-09-01T09:06:40;4.75;;;3.22;;
44558;SDS011;30270;40.238;18.256;2022-09-01T09:09:18;6.07;;;3.42;;
44558;SDS011;30270;40.238;18.256;2022-09-01T09:12:03;6.63;;;3.60;;
44558;SDS011;30270;40.238;18.256;2022-09-01T09:17:32;7.40;;;3.70;;
44558;SDS011;30270;40.238;18.256;2022-09-01T09:20:05;4.03;;;2.70;;
44558;SDS011;30270;40.238;18.256;2022-09-01T09:22:34;5.47;;;3.22;;
44558;SDS011;30270;40.238;18.256;2022-09-01T09:30:21;7.40;;;3.13;;
44558;SDS011;30270;40.238;18.256;2022-09-01T09:33:02;5.72;;;3.20;;
44558;SDS011;30270;40.238;18.256;2022-09-01T09:35:52;5.72;;;3.35;;
44558;SDS011;30270;40.238;18.256;2022-09-01T09:38:23;6.78;;;3.20;;
44558;SDS011;30270;40.238;18.256;2022-09-01T09:41:09;5.78;;;3.30;;
44558;SDS011;30270;40.238;18.256;2022-09-01T09:46:36;5.10;;;3.70;;
44558;SDS011;30270;40.238;18.256;2022-09-01T09:51:46;7.30;;;3.45;;
44558;SDS011;30270;40.238;18.256;2022-09-01T09:54:33;6.50;;;3.58;;
44558;SDS011;30270;40.238;18.256;2022-09-01T10:05:00;7.18;;;4.00;;
44558;SDS011;30270;40.238;18.256;2022-09-01T10:07:46;4.05;;;3.05;;
44558;SDS011;30270;40.238;18.256;2022-09-01T10:12:57;7.35;;;3.50;;
44558;SDS011;30270;40.238;18.256;2022-09-01T10:15:28;5.15;;;2.90;;
44558;SDS011;30270;40.238;18.256;2022-09-01T10:18:08;4.63;;;3.45;;
44558;SDS011;30270;40.238;18.256;2022-09-01T10:20:52;4.85;;;2.90;;
44558;SDS011;30270;40.238;18.256;2022-09-01T10:23:21;7.13;;;3.30;;
44558;SDS011;30270;40.238;18.256;2022-09-01T10:25:54;5.85;;;2.97;;
44558;SDS011;30270;40.238;18.256;2022-09-01T10:28:31;5.47;;;3.00;;
44558;SDS011;30270;40.238;18.256;2022-09-01T10:31:02;4.63;;;3.10;;
44558;SDS011;30270;40.238;18.256;2022-09-01T10:33:30;5.25;;;3.70;;
44558;SDS011;30270;40.238;18.256;2022-09-01T10:35:58;5.93;;;3.03;;
44558;SDS011;30270;40.238;18.256;2022-09-01T10:38:26;7.15;;;3.53;;
44558;SDS011;30270;40.238;18.256;2022-09-01T10:40:56;4.50;;;3.08;;
44558;SDS011;30270;40.238;18.256;2022-09-01T10:43:37;5.32;;;3.22;;
44558;SDS011;30270;40.238;18.256;2022-09-01T10:48:50;9.60;;;3.22;;
44558;SDS011;30270;40.238;18.256;2022-09-01T10:54:01;4.90;;;3.22;;
44558;SDS011;30270;40.238;18.256;2022-09-01T10:56:42;3.78;;;2.95;;
44558;SDS011;30270;40.238;18.256;2022-09-01T11:07:32;4.40;;;2.70;;
44558;SDS011;30270;40.238;18.256;2022-09-01T11:10:31;4.30;;;3.17;;
44558;SDS011;30270;40.238;18.256;2022-09-01T11:25:04;6.03;;;2.67;;
44558;SDS011;30270;40.238;18.256;2022-09-01T11:30:20;4.72;;;3.55;;
44558;SDS011;30270;40.238;18.256;2022-09-01T11:32:51;5.97;;;3.33;;
44558;SDS011;30270;40.238;18.256;2022-09-01T11:35:24;6.45;;;3.08;;
44558;SDS011;30270;40.238;18.256;2022-09-01T11:37:55;6.68;;;3.45;;
44558;SDS011;30270;40.238;18.256;2022-09-01T11:40:31;4.55;;;2.47;;
44558;SDS011;30270;40.238;18.256;2022-09-01T11:43:06;5.03;;;2.90;;
44558;SDS011;30270;40.238;18.256;2022-09-01T11:45:41;4.32;;;2.55;;
44558;SDS011;30270;40.238;18.256;2022-09-01T11:48:23;5.53;;;2.30;;
44558;SDS011;30270;40.238;18.256;2022-09-01T11:50:59;4.93;;;2.30;;
44558;SDS011;30270;40.238;18.256;2022-09-01T11:53:29;5.93;;;2.58;;
44558;SDS011;30270;40.238;18.256;2022-09-01T11:56:12;5.18;;;2.90;;
44558;SDS011;30270;40.238;18.256;2022-09-01T11:58:44;3.85;;;2.70;;
44558;SDS011;30270;40.238;18.256;2022-09-01T12:01:16;3.75;;;2.42;;
44558;SDS011;30270;40.238;18.256;2022-09-01T12:04:20;5.65;;;2.83;;
44558;SDS011;30270;40.238;18.256;2022-09-01T12:07:00;4.63;;;2.85;;
44558;SDS011;30270;40.238;18.256;2022-09-01T12:09:35;5.97;;;2.35;;
44558;SDS011;30270;40.238;18.256;2022-09-01T12:14:55;4.65;;;2.53;;
44558;SDS011;30270;40.238;18.256;2022-09-01T12:17:30;3.67;;;2.00;;
44558;SDS011;30270;40.238;18.256;2022-09-01T12:20:19;4.70;;;2.53;;
44558;SDS011;30270;40.238;18.256;2022-09-01T12:22:56;3.47;;;2.30;;
44558;SDS011;30270;40.238;18.256;2022-09-01T12:25:27;3.97;;;2.13;;
44558;SDS011;30270;40.238;18.256;2022-09-01T12:27:58;3.22;;;2.03;;
44558;SDS011;30270;40.238;18.256;2022-09-01T12:30:28;3.28;;;2.30;;
44558;SDS011;30270;40.238;18.256;2022-09-01T12:33:02;3.97;;;2.25;;
44558;SDS011;30270;40.238;18.256;2022-09-01T12:35:49;4.53;;;2.30;;
44558;SDS011;30270;40.238;18.256;2022-09-01T12:40:47;3.38;;;2.15;;
44558;SDS011;30270;40.238;18.256;2022-09-01T12:43:37;4.78;;;2.00;;
44558;SDS011;30270;40.238;18.256;2022-09-01T12:46:06;3.17;;;2.22;;
44558;SDS011;30270;40.238;18.256;2022-09-01T12:48:39;3.30;;;2.15;;
44558;SDS011;30270;40.238;18.256;2022-09-01T12:51:18;4.82;;;2.08;;
44558;SDS011;30270;40.238;18.256;2022-09-01T12:53:56;4.35;;;1.80;;
44558;SDS011;30270;40.238;18.256;2022-09-01T12:56:29;3.70;;;2.03;;
44558;SDS011;30270;40.238;18.256;2022-09-01T13:01:38;2.92;;;1.80;;
44558;SDS011;30270;40.238;18.256;2022-09-01T13:04:22;4.50;;;1.63;;
44558;SDS011;30270;40.238;18.256;2022-09-01T13:07:01;3.42;;;1.83;;
44558;SDS011;30270;40.238;18.256;2022-09-01T13:09:32;3.65;;;1.90;;
44558;SDS011;30270;40.238;18.256;2022-09-01T13:12:08;3.15;;;2.00;;
44558;SDS011;30270;40.238;18.256;2022-09-01T13:14:43;5.53;;;1.95;;
44558;SDS011;30270;40.238;18.256;2022-09-01T13:17:12;6.45;;;2.03;;
44558;SDS011;30270;40.238;18.256;2022-09-01T13:19:40;3.67;;;2.15;;
44558;SDS011;30270;40.238;18.256;2022-09-01T13:22:08;2.90;;;1.90;;
44558;SDS011;30270;40.238;18.256;2022-09-01T13:24:36;3.20;;;1.75;;
44558;SDS011;30270;40.238;18.256;2022-09-01T13:27:05;4.13;;;1.80;;
44558;SDS011;30270;40.238;18.256;2022-09-01T13:29:49;3.95;;;2.08;;
44558;SDS011;30270;40.238;18.256;2022-09-01T13:32:17;2.83;;;2.03;;
44558;SDS011;30270;40.238;18.256;2022-09-01T13:34:47;3.17;;;2.05;;
44558;SDS011;30270;40.238;18.256;2022-09-01T13:37:17;3.20;;;2.08;;
44558;SDS011;30270;40.238;18.256;2022-09-01T13:39:46;3.25;;;1.88;;
44558;SDS011;30270;40.238;18.256;2022-09-01T13:42:14;4.05;;;2.10;;
44558;SDS011;30270;40.238;18.256;2022-09-01T13:44:43;2.75;;;1.88;;
44558;SDS011;30270;40.238;18.256;2022-09-01T13:47:12;3.72;;;1.90;;
44558;SDS011;30270;40.238;18.256;2022-09-01T13:49:56;2.08;;;1.70;;
44558;SDS011;30270;40.238;18.256;2022-09-01T13:52:34;3.92;;;2.05;;
44558;SDS011;30270;40.238;18.256;2022-09-01T13:55:04;4.63;;;1.70;;
44558;SDS011;30270;40.238;18.256;2022-09-01T13:57:32;4.60;;;1.83;;
44558;SDS011;30270;40.238;18.256;2022-09-01T14:00:02;3.35;;;2.10;;
44558;SDS011;30270;40.238;18.256;2022-09-01T14:05:05;6.43;;;2.35;;
44558;SDS011;30270;40.238;18.256;2022-09-01T14:07:34;5.60;;;2.80;;
44558;SDS011;30270;40.238;18.256;2022-09-01T14:10:02;4.75;;;1.92;;
44558;SDS011;30270;40.238;18.256;2022-09-01T14:12:31;3.67;;;1.77;;
44558;SDS011;30270;40.238;18.256;2022-09-01T14:14:58;4.78;;;1.90;;
44558;SDS011;30270;40.238;18.256;2022-09-01T14:17:43;2.80;;;1.90;;
44558;SDS011;30270;40.238;18.256;2022-09-01T14:20:14;4.07;;;2.53;;
44558;SDS011;30270;40.238;18.256;2022-09-01T14:22:44;5.15;;;1.90;;
44558;SDS011;30270;40.238;18.256;2022-09-01T14:25:13;6.40;;;2.40;;
44558;SDS011;30270;40.238;18.256;2022-09-01T14:27:42;4.28;;;2.10;;
44558;SDS011;30270;40.238;18.256;2022-09-01T14:30:12;9.00;;;2.60;;
44558;SDS011;30270;40.238;18.256;2022-09-01T14:32:43;4.63;;;2.25;;
44558;SDS011;30270;40.238;18.256;2022-09-01T14:35:12;3.90;;;2.60;;
44558;SDS011;30270;40.238;18.256;2022-09-01T14:37:41;3.80;;;2.03;;
44558;SDS011;30270;40.238;18.256;2022-09-01T14:40:10;6.32;;;2.17;;
44558;SDS011;30270;40.238;18.256;2022-09-01T14:42:41;5.38;;;2.45;;
44558;SDS011;30270;40.238;18.256;2022-09-01T14:45:11;4.88;;;2.60;;
44558;SDS011;30270;40.238;18.256;2022-09-01T14:47:41;7.05;;;3.00;;
44558;SDS011;30270;40.238;18.256;2022-09-01T14:50:10;4.90;;;2.33;;
44558;SDS011;30270;40.238;18.256;2022-09-01T14:52:38;7.15;;;2.55;;
44558;SDS011;30270;40.238;18.256;2022-09-01T14:55:07;7.00;;;2.30;;
44558;SDS011;30270;40.238;18.256;2022-09-01T14:57:35;5.25;;;2.13;;
44558;SDS011;30270;40.238;18.256;2022-09-01T15:00:08;6.35;;;2.45;;
44558;SDS011;30270;40.238;18.256;2022-09-01T15:02:38;5.32;;;2.03;;
44558;SDS011;30270;40.238;18.256;2022-09-01T15:05:08;5.65;;;2.60;;
44558;SDS011;30270;40.238;18.256;2022-09-01T15:07:37;7.38;;;2.70;;
44558;SDS011;30270;40.238;18.256;2022-09-01T15:10:06;6.80;;;2.35;;
44558;SDS011;30270;40.238;18.256;2022-09-01T15:12:36;7.13;;;2.92;;
44558;SDS011;30270;40.238;18.256;2022-09-01T15:15:05;7.07;;;2.40;;
44558;SDS011;30270;40.238;18.256;2022-09-01T15:17:34;5.68;;;2.25;;
44558;SDS011;30270;40.238;18.256;2022-09-01T15:20:03;6.47;;;1.98;;
44558;SDS011;30270;40.238;18.256;2022-09-01T15:22:50;7.88;;;2.40;;
44558;SDS011;30270;40.238;18.256;2022-09-01T15:25:17;7.43;;;1.88;;
44558;SDS011;30270;40.238;18.256;2022-09-01T15:27:45;6.85;;;2.97;;
44558;SDS011;30270;40.238;18.256;2022-09-01T15:30:14;10.82;;;2.35;;
44558;SDS011;30270;40.238;18.256;2022-09-01T15:32:44;6.47;;;2.33;;
44558;SDS011;30270;40.238;18.256;2022-09-01T15:35:13;7.82;;;3.00;;
44558;SDS011;30270;40.238;18.256;2022-09-01T15:37:41;7.03;;;2.97;;
44558;SDS011;30270;40.238;18.256;2022-09-01T15:40:09;5.68;;;2.35;;
44558;SDS011;30270;40.238;18.256;2022-09-01T15:42:37;9.43;;;3.45;;
44558;SDS011;30270;40.238;18.256;2022-09-01T15:45:06;3.47;;;1.75;;
44558;SDS011;30270;40.238;18.256;2022-09-01T15:47:37;7.68;;;2.22;;
44558;SDS011;30270;40.238;18.256;2022-09-01T15:50:06;9.07;;;2.30;;
44558;SDS011;30270;40.238;18.256;2022-09-01T15:52:53;5.20;;;2.30;;
44558;SDS011;30270;40.238;18.256;2022-09-01T15:55:29;5.75;;;2.03;;
44558;SDS011;30270;40.238;18.256;2022-09-01T15:58:03;9.15;;;2.65;;
44558;SDS011;30270;40.238;18.256;2022-09-01T16:00:31;5.95;;;2.70;;
44558;SDS011;30270;40.238;18.256;2022-09-01T16:02:59;10.68;;;2.33;;
44558;SDS011;30270;40.238;18.256;2022-09-01T16:05:28;3.63;;;1.73;;
44558;SDS011;30270;40.238;18.256;2022-09-01T16:07:58;7.00;;;2.75;;
44558;SDS011;30270;40.238;18.256;2022-09-01T16:10:27;4.70;;;2.00;;
44558;SDS011;30270;40.238;18.256;2022-09-01T16:12:56;6.03;;;2.20;;
44558;SDS011;30270;40.238;18.256;2022-09-01T16:15:24;8.13;;;2.38;;
44558;SDS011;30270;40.238;18.256;2022-09-01T16:21:07;6.03;;;1.90;;
44558;SDS011;30270;40.238;18.256;2022-09-01T16:23:47;4.82;;;2.35;;
44558;SDS011;30270;40.238;18.256;2022-09-01T16:26:16;5.65;;;2.00;;
44558;SDS011;30270;40.238;18.256;2022-09-01T16:28:47;4.75;;;2.58;;
44558;SDS011;30270;40.238;18.256;2022-09-01T16:31:19;5.82;;;2.42;;
44558;SDS011;30270;40.238;18.256;2022-09-01T16:33:58;6.18;;;2.08;;